Time;durP1;ratioP1;P1;durP2;ratioP2;P2;SDS_P1;SDS_P2;PMS_P1;PMS_P2;Temp;Humidity;BMP_temperature;BMP_pressure;BME280_temperature;BME280_humidity;BME280_pressure;Samples;Min_cycle;Max_cycle;Signal;HPM_P1;HPM_P2
2022/03/13 00:01:03;;;;;;;7.33;5.27;;;;;;;-4.52;51.27;98367.66;6178939;28;20225;-68
2022/03/13 00:04:06;;;;;;;9.23;4.83;;;;;;;-4.57;51.77;98368.56;6139412;28;20238;-67
2022/03/13 00:07:18;;;;;;;9.23;5.07;;;;;;;-4.64;52.35;98364.34;6167845;28;20233;-68
2022/03/13 00:10:27;;;;;;;8.73;5.37;;;;;;;-4.63;51.81;98371.22;6175505;28;20237;-67
2022/03/13 00:13:31;;;;;;;11.00;5.73;;;;;;;-4.65;52.25;98363.50;6177083;28;20723;-69
2022/03/13 00:16:34;;;;;;;10.40;5.93;;;;;;;-4.70;52.86;98365.25;6192740;28;20244;-67
2022/03/13 00:19:36;;;;;;;8.33;4.90;;;;;;;-4.77;52.90;98361.00;6190351;28;20734;-67
2022/03/13 00:22:38;;;;;;;10.93;5.87;;;;;;;-4.79;53.89;98365.31;6179087;28;20711;-67
2022/03/13 00:25:40;;;;;;;9.13;5.33;;;;;;;-4.81;53.55;98363.66;6179021;28;20229;-68
2022/03/13 00:28:47;;;;;;;7.87;4.83;;;;;;;-4.85;53.25;98370.53;6177215;28;20253;-68
2022/03/13 00:31:48;;;;;;;10.80;5.43;;;;;;;-4.84;52.72;98360.22;6178127;28;20521;-67
2022/03/13 00:34:51;;;;;;;9.07;5.67;;;;;;;-4.85;53.47;98358.53;6179282;28;20649;-67
2022/03/13 00:37:54;;;;;;;9.10;5.83;;;;;;;-4.86;53.52;98351.66;6192724;28;20244;-67
2022/03/13 00:40:58;;;;;;;8.77;5.13;;;;;;;-4.82;52.83;98354.22;6169816;28;20240;-68
2022/03/13 00:44:01;;;;;;;9.23;5.40;;;;;;;-4.85;53.19;98349.94;6176376;28;20270;-68
2022/03/13 00:47:05;;;;;;;9.20;6.07;;;;;;;-4.85;53.25;98348.22;6161244;28;20259;-68
2022/03/13 00:50:08;;;;;;;8.50;5.40;;;;;;;-4.81;52.75;98348.19;6184436;28;20233;-67
2022/03/13 00:53:10;;;;;;;8.40;5.63;;;;;;;-4.76;53.21;98347.28;6154854;28;20243;-67
2022/03/13 00:56:14;;;;;;;9.57;6.03;;;;;;;-4.74;52.58;98336.97;6156510;28;20594;-68
2022/03/13 00:59:16;;;;;;;10.27;5.27;;;;;;;-4.75;53.05;98336.13;6162107;28;20709;-68
2022/03/13 01:02:18;;;;;;;7.80;5.50;;;;;;;-4.80;53.14;98330.19;6162529;28;20237;-67
2022/03/13 01:05:27;;;;;;;11.73;5.73;;;;;;;-4.78;53.30;98328.41;6161840;28;20233;-68
2022/03/13 01:08:29;;;;;;;9.97;6.00;;;;;;;-4.84;53.28;98331.91;6162959;28;20230;-67
2022/03/13 01:11:31;;;;;;;8.83;5.40;;;;;;;-4.87;53.17;98329.34;6162907;28;20256;-68
2022/03/13 01:14:34;;;;;;;9.83;5.97;;;;;;;-4.96;54.29;98326.00;6161967;28;20241;-67
2022/03/13 01:17:36;;;;;;;9.47;5.17;;;;;;;-5.00;54.32;98326.91;6174825;28;20234;-67
2022/03/13 01:20:38;;;;;;;11.33;6.33;;;;;;;-5.03;54.43;98320.06;6164798;28;20259;-67
2022/03/13 01:23:41;;;;;;;8.67;5.70;;;;;;;-5.05;54.05;98323.50;6177049;28;20218;-68
2022/03/13 01:26:43;;;;;;;10.10;6.00;;;;;;;-5.03;54.93;98316.66;6161577;28;20237;-67
2022/03/13 01:29:45;;;;;;;8.40;5.40;;;;;;;-5.04;55.01;98310.63;6160430;28;20233;-68
2022/03/13 01:32:54;;;;;;;10.23;6.17;;;;;;;-4.98;55.17;98304.56;6162406;28;20237;-67
2022/03/13 01:35:56;;;;;;;7.90;5.50;;;;;;;-4.99;54.83;98308.03;6161871;28;20239;-67
2022/03/13 01:39:00;;;;;;;10.50;6.47;;;;;;;-4.99;54.44;98310.63;6160403;28;20608;-67
2022/03/13 01:42:03;;;;;;;8.97;5.63;;;;;;;-5.00;55.12;98301.19;6183345;28;20221;-67
2022/03/13 01:45:09;;;;;;;11.33;6.47;;;;;;;-5.09;55.69;98296.94;6165230;28;20220;-67
2022/03/13 01:48:13;;;;;;;9.83;5.33;;;;;;;-5.14;55.83;98295.28;6180527;28;20656;-67
2022/03/13 01:51:15;;;;;;;10.37;5.70;;;;;;;-5.18;56.01;98302.16;6161602;28;20249;-67
2022/03/13 01:54:17;;;;;;;10.10;6.33;;;;;;;-5.07;55.10;98300.38;6160874;28;20730;-67
2022/03/13 01:57:20;;;;;;;11.73;6.20;;;;;;;-5.05;55.14;98293.50;6162442;28;20593;-67
2022/03/13 02:00:23;;;;;;;8.27;5.53;;;;;;;-5.04;54.87;98296.91;6161620;28;20233;-67
2022/03/13 02:03:27;;;;;;;11.23;5.87;;;;;;;-5.04;55.22;98294.34;6162400;28;21078;-69
2022/03/13 02:06:29;;;;;;;10.87;6.30;;;;;;;-5.11;55.39;98290.13;6165880;28;20743;-67
2022/03/13 02:09:31;;;;;;;11.93;6.70;;;;;;;-5.17;55.53;98288.44;6196619;28;20236;-68
2022/03/13 02:12:35;;;;;;;11.07;5.63;;;;;;;-5.16;55.30;98287.59;6181513;28;20238;-67
2022/03/13 02:15:38;;;;;;;8.30;5.60;;;;;;;-5.14;55.31;98285.84;6185257;28;20261;-67
2022/03/13 02:18:40;;;;;;;9.23;5.60;;;;;;;-5.14;55.18;98291.00;6181126;28;20786;-67
2022/03/13 02:21:46;;;;;;;11.80;6.77;;;;;;;-5.20;55.86;98283.34;6157882;28;20288;-67
2022/03/13 02:24:50;;;;;;;10.57;5.43;;;;;;;-5.22;56.24;98277.34;6179998;28;20240;-67
2022/03/13 02:27:52;;;;;;;10.83;6.93;;;;;;;-5.26;56.56;98262.81;6180709;28;20255;-68
2022/03/13 02:31:03;;;;;;;9.10;5.63;;;;;;;-5.28;56.22;98267.09;6181632;28;20601;-67
2022/03/13 02:34:09;;;;;;;10.17;6.47;;;;;;;-5.31;56.51;98267.16;6180987;28;20315;-67
2022/03/13 02:37:34;;;;;;;10.43;5.33;;;;;;;-5.33;56.10;98256.88;6181740;28;20233;-68
2022/03/13 02:40:36;;;;;;;7.47;5.23;;;;;;;-5.35;56.47;98262.88;6180382;28;20613;-67
2022/03/13 02:43:38;;;;;;;8.93;5.73;;;;;;;-5.39;56.79;98272.31;6181520;28;20323;-69
2022/03/13 02:46:46;;;;;;;10.30;6.77;;;;;;;-5.45;57.42;98268.97;6192119;28;20716;-68
2022/03/13 02:49:48;;;;;;;8.57;5.57;;;;;;;-5.54;57.59;98275.03;6180387;28;20843;-68
2022/03/13 02:52:50;;;;;;;9.57;6.13;;;;;;;-5.62;58.24;98267.38;6181001;28;20589;-67
2022/03/13 02:55:52;;;;;;;9.77;6.27;;;;;;;-5.66;58.39;98263.09;6180342;28;20247;-67
2022/03/13 02:58:54;;;;;;;9.97;6.47;;;;;;;-5.60;57.64;98264.81;6180774;28;20240;-67
2022/03/13 03:02:00;;;;;;;12.13;6.33;;;;;;;-5.62;58.06;98262.22;6180723;28;20231;-67
2022/03/13 03:05:07;;;;;;;14.07;7.37;;;;;;;-5.65;58.13;98262.25;6181214;28;20240;-67
2022/03/13 03:08:10;;;;;;;12.17;6.57;;;;;;;-5.62;58.35;98259.66;6180702;28;20596;-67
2022/03/13 03:11:14;;;;;;;12.37;6.73;;;;;;;-5.63;58.24;98272.53;6179926;28;20727;-68
2022/03/13 03:14:16;;;;;;;9.97;6.23;;;;;;;-5.67;58.75;98266.53;6180362;28;20709;-67
2022/03/13 03:17:18;;;;;;;9.53;6.00;;;;;;;-5.64;59.02;98270.81;6199442;28;20734;-68
2022/03/13 03:20:21;;;;;;;11.13;6.47;;;;;;;-5.66;59.11;98268.25;6178547;28;20228;-68
2022/03/13 03:23:23;;;;;;;10.17;5.40;;;;;;;-5.65;58.81;98266.53;6194869;28;20612;-68
2022/03/13 03:26:25;;;;;;;12.37;6.77;;;;;;;-5.64;58.99;98266.53;6178106;28;20274;-68
2022/03/13 03:29:29;;;;;;;11.67;6.20;;;;;;;-5.60;58.18;98269.94;6181577;28;20232;-68
2022/03/13 03:32:31;;;;;;;10.13;6.33;;;;;;;-5.59;58.13;98264.75;6178856;28;20344;-67
2022/03/13 03:35:34;;;;;;;11.70;6.40;;;;;;;-5.62;57.46;98262.22;6211446;28;20236;-68
2022/03/13 03:38:36;;;;;;;10.47;6.20;;;;;;;-5.66;58.04;98254.53;6179604;28;20594;-68
2022/03/13 03:41:41;;;;;;;10.37;6.60;;;;;;;-5.70;58.82;98252.88;6179549;28;20221;-68
2022/03/13 03:44:43;;;;;;;10.23;6.53;;;;;;;-5.74;58.51;98253.75;6180198;28;20238;-68
2022/03/13 03:47:45;;;;;;;13.10;7.13;;;;;;;-5.71;57.64;98256.31;6176899;28;20689;-67
2022/03/13 03:50:47;;;;;;;12.43;6.27;;;;;;;-5.72;58.41;98246.88;6179370;28;20229;-68
2022/03/13 03:53:50;;;;;;;9.43;6.30;;;;;;;-5.74;58.85;98259.75;6177741;28;20232;-69
2022/03/13 03:56:52;;;;;;;11.43;5.87;;;;;;;-5.70;58.63;98261.44;6179339;28;20229;-68
2022/03/13 03:59:54;;;;;;;11.80;6.63;;;;;;;-5.65;58.73;98262.25;6193822;28;20229;-68
2022/03/13 04:02:56;;;;;;;9.40;6.10;;;;;;;-5.63;58.01;98257.94;6179019;28;20700;-68
2022/03/13 04:05:58;;;;;;;9.80;6.50;;;;;;;-5.61;57.80;98260.50;6193676;28;20251;-68
2022/03/13 04:09:00;;;;;;;9.43;6.40;;;;;;;-5.64;58.03;98263.09;6178980;28;20607;-68
2022/03/13 04:12:07;;;;;;;8.80;5.77;;;;;;;-5.65;57.52;98267.38;6181620;28;20256;-68
2022/03/13 04:15:10;;;;;;;9.80;5.53;;;;;;;-5.67;57.21;98270.81;6158348;28;20223;-68
2022/03/13 04:18:12;;;;;;;10.97;6.50;;;;;;;-5.70;57.82;98264.00;6158541;28;20224;-68
2022/03/13 04:21:14;;;;;;;10.03;6.23;;;;;;;-5.74;58.06;98257.16;6155233;28;20224;-68
2022/03/13 04:24:16;;;;;;;11.50;5.80;;;;;;;-5.78;58.04;98265.75;6160820;28;20599;-68
2022/03/13 04:27:18;;;;;;;8.97;5.63;;;;;;;-5.80;58.33;98261.50;6155483;28;20617;-67
2022/03/13 04:30:21;;;;;;;11.43;6.70;;;;;;;-5.82;57.89;98258.09;6155188;28;20612;-68
2022/03/13 04:33:25;;;;;;;12.40;6.20;;;;;;;-5.83;58.00;98262.38;6154612;28;20234;-69
2022/03/13 04:36:29;;;;;;;12.90;7.37;;;;;;;-5.86;57.92;98269.22;6154845;28;20316;-69
2022/03/13 04:39:35;;;;;;;11.63;6.37;;;;;;;-5.91;58.95;98265.88;6154452;28;20232;-67
2022/03/13 04:42:37;;;;;;;10.17;6.27;;;;;;;-6.00;59.08;98265.09;6185243;28;20244;-67
2022/03/13 04:45:39;;;;;;;10.33;6.37;;;;;;;-6.09;58.62;98266.84;6160945;28;20232;-68
2022/03/13 04:48:41;;;;;;;13.90;6.47;;;;;;;-6.20;60.13;98269.47;6162365;28;20241;-68
2022/03/13 04:51:43;;;;;;;15.20;7.03;;;;;;;-6.27;60.15;98265.19;6154683;28;20230;-68
2022/03/13 04:54:45;;;;;;;9.40;5.53;;;;;;;-6.35;60.08;98264.38;6153802;28;20233;-68
2022/03/13 04:57:46;;;;;;;11.77;6.13;;;;;;;-6.42;60.29;98270.41;6154989;28;20747;-69
2022/03/13 05:00:48;;;;;;;10.87;5.93;;;;;;;-6.46;60.60;98264.44;6154397;28;20321;-67
2022/03/13 05:03:50;;;;;;;9.30;6.47;;;;;;;-6.43;60.03;98271.28;6154272;28;20233;-68
2022/03/13 05:06:52;;;;;;;11.00;6.70;;;;;;;-6.45;61.13;98272.97;6154646;28;20605;-68
2022/03/13 05:09:54;;;;;;;11.27;5.70;;;;;;;-6.44;60.25;98272.13;6168609;28;20604;-69
2022/03/13 05:12:57;;;;;;;8.13;5.37;;;;;;;-6.47;60.49;98270.41;6154839;28;20760;-68
2022/03/13 05:15:59;;;;;;;9.17;5.40;;;;;;;-6.47;61.20;98274.69;6162376;28;20605;-68
2022/03/13 05:19:02;;;;;;;7.73;5.40;;;;;;;-6.51;60.40;98273.88;6169948;28;20716;-68
2022/03/13 05:22:04;;;;;;;10.70;6.63;;;;;;;-6.56;60.63;98272.16;6154172;28;20268;-68
2022/03/13 05:25:06;;;;;;;12.73;6.27;;;;;;;-6.60;61.85;98286.72;6176428;28;20278;-68
2022/03/13 05:28:09;;;;;;;12.40;6.60;;;;;;;-6.61;61.17;98277.31;6185049;28;20244;-68
2022/03/13 05:31:11;;;;;;;10.07;6.17;;;;;;;-6.62;61.74;98274.75;6153975;28;20238;-68
2022/03/13 05:34:14;;;;;;;10.83;6.10;;;;;;;-6.65;61.78;98285.88;6153339;28;20243;-68
2022/03/13 05:37:16;;;;;;;9.97;6.30;;;;;;;-6.63;61.47;98286.72;6153913;28;20229;-69
2022/03/13 05:40:20;;;;;;;10.57;5.87;;;;;;;-6.61;61.17;98282.47;6153266;28;20386;-68
2022/03/13 05:43:22;;;;;;;11.30;6.43;;;;;;;-6.60;61.94;98281.59;6154756;28;20647;-68
2022/03/13 05:46:27;;;;;;;9.00;5.90;;;;;;;-6.59;61.79;98279.91;6162475;28;20332;-69
2022/03/13 05:49:29;;;;;;;13.80;6.37;;;;;;;-6.53;61.59;98280.72;6158579;28;20239;-69
2022/03/13 05:52:32;;;;;;;11.07;6.13;;;;;;;-6.48;61.80;98281.53;6158266;28;20260;-68
2022/03/13 05:55:34;;;;;;;8.93;5.60;;;;;;;-6.44;60.99;98283.25;6157590;28;20292;-68
2022/03/13 05:58:36;;;;;;;9.70;6.00;;;;;;;-6.40;61.51;98281.53;6157407;28;20241;-69
2022/03/13 06:01:38;;;;;;;10.73;6.70;;;;;;;-6.39;61.76;98288.38;6157427;28;20263;-68
2022/03/13 06:04:40;;;;;;;8.17;6.00;;;;;;;-6.35;61.30;98287.50;6157895;28;20261;-68
2022/03/13 06:07:42;;;;;;;11.90;5.87;;;;;;;-6.30;60.25;98290.06;6157828;28;20246;-68
2022/03/13 06:10:51;;;;;;;11.70;6.20;;;;;;;-6.24;61.27;98290.03;6170793;28;20749;-68
2022/03/13 06:13:53;;;;;;;10.33;6.30;;;;;;;-6.20;60.76;98291.72;6157675;28;20333;-68
2022/03/13 06:16:55;;;;;;;10.03;6.23;;;;;;;-6.15;61.87;98295.97;6170720;28;20222;-68
2022/03/13 06:19:57;;;;;;;8.20;5.77;;;;;;;-5.94;60.26;98294.16;6188306;28;20610;-68
2022/03/13 06:23:01;;;;;;;10.70;6.20;;;;;;;-5.84;60.44;98295.78;6164955;28;20225;-68
2022/03/13 06:26:03;;;;;;;10.43;5.73;;;;;;;-5.78;60.17;98288.88;6159660;28;20765;-68
2022/03/13 06:29:05;;;;;;;9.63;6.30;;;;;;;-5.72;59.88;98294.00;6171695;28;20258;-68
2022/03/13 06:32:07;;;;;;;11.77;6.30;;;;;;;-5.60;60.42;98287.94;6154941;28;20801;-68
2022/03/13 06:35:10;;;;;;;10.93;7.20;;;;;;;-5.46;59.87;98290.38;6156708;28;20234;-70
2022/03/13 06:38:12;;;;;;;9.33;6.27;;;;;;;-5.35;59.64;98294.59;6156260;28;20230;-68
2022/03/13 06:41:17;;;;;;;8.77;5.80;;;;;;;-5.17;58.33;98297.88;6161653;28;20233;-68
2022/03/13 06:44:19;;;;;;;10.40;6.50;;;;;;;-5.08;58.50;98300.38;6171403;28;20226;-68
2022/03/13 06:47:21;;;;;;;11.67;6.90;;;;;;;-4.99;58.76;98293.44;6176738;28;20617;-68
2022/03/13 06:50:23;;;;;;;10.90;6.60;;;;;;;-4.88;57.96;98290.75;6154883;28;20267;-69
2022/03/13 06:53:26;;;;;;;9.73;6.07;;;;;;;-4.79;58.10;98295.00;6171012;28;20345;-68
2022/03/13 06:56:29;;;;;;;10.43;7.03;;;;;;;-4.66;57.50;98299.97;6156749;28;20249;-68
2022/03/13 06:59:31;;;;;;;13.20;7.33;;;;;;;-4.51;56.75;98299.00;6156271;28;20803;-68
2022/03/13 07:02:33;;;;;;;15.37;7.87;;;;;;;-4.44;56.65;98292.88;6156724;28;20306;-68
2022/03/13 07:05:35;;;;;;;9.80;6.40;;;;;;;-4.32;56.52;98303.06;6156241;28;20225;-68
2022/03/13 07:08:36;;;;;;;11.43;7.20;;;;;;;-4.16;55.21;98296.00;6154144;28;20217;-68
2022/03/13 07:11:43;;;;;;;11.73;6.67;;;;;;;-3.76;52.20;98294.59;6156423;28;20241;-68
2022/03/13 07:14:48;;;;;;;11.30;7.10;;;;;;;-3.52;51.90;98295.16;6170905;28;20265;-68
2022/03/13 07:17:50;;;;;;;13.43;6.97;;;;;;;-3.43;51.93;98293.28;6155819;28;20634;-70
2022/03/13 07:20:52;;;;;;;12.33;6.83;;;;;;;-3.41;52.69;98298.44;6155997;28;20248;-68
2022/03/13 07:23:54;;;;;;;10.23;5.60;;;;;;;-3.16;50.99;98294.56;6171743;28;20762;-68
2022/03/13 07:26:56;;;;;;;10.40;6.20;;;;;;;-3.00;50.08;98292.63;6163625;28;20611;-69
2022/03/13 07:29:58;;;;;;;10.43;6.53;;;;;;;-2.78;49.16;98285.31;6154618;28;20240;-69
2022/03/13 07:33:01;;;;;;;9.73;5.70;;;;;;;-2.52;47.92;98277.13;6209716;28;20493;-68
2022/03/13 07:36:03;;;;;;;8.63;5.97;;;;;;;-1.80;43.38;98282.56;6155369;28;20222;-68
2022/03/13 07:39:05;;;;;;;10.77;6.30;;;;;;;-1.70;44.46;98283.19;6155052;28;20241;-69
2022/03/13 07:42:12;;;;;;;11.57;7.13;;;;;;;-1.35;41.97;98272.03;6170623;28;20206;-68
2022/03/13 07:45:15;;;;;;;10.07;6.17;;;;;;;-1.23;42.27;98272.59;6157250;28;20313;-69
2022/03/13 07:48:22;;;;;;;11.20;5.73;;;;;;;-0.78;40.47;98282.72;6143006;28;20327;-68
2022/03/13 07:51:23;;;;;;;8.00;5.73;;;;;;;-0.42;39.48;98286.09;6155203;28;20341;-69
2022/03/13 07:54:26;;;;;;;12.47;7.00;;;;;;;-0.24;38.37;98285.59;6155018;28;20606;-68
2022/03/13 07:57:28;;;;;;;8.87;5.97;;;;;;;0.21;37.11;98274.78;6155689;28;20689;-69
2022/03/13 08:00:30;;;;;;;10.77;6.17;;;;;;;0.70;35.93;98275.00;6154730;28;20225;-69
2022/03/13 08:03:36;;;;;;;10.67;6.67;;;;;;;1.04;35.66;98279.13;6155122;28;20222;-68
2022/03/13 08:06:39;;;;;;;9.47;6.70;;;;;;;1.39;34.78;98276.22;6153776;28;20237;-68
2022/03/13 08:09:41;;;;;;;9.67;6.27;;;;;;;1.77;34.87;98274.03;6155617;28;20229;-68
2022/03/13 08:12:43;;;;;;;11.40;6.60;;;;;;;2.06;33.59;98276.41;6159194;28;20240;-68
2022/03/13 08:15:45;;;;;;;10.27;6.40;;;;;;;2.46;33.54;98274.91;6179956;28;20847;-68
2022/03/13 08:18:47;;;;;;;9.93;6.10;;;;;;;2.64;32.62;98276.81;6163210;28;20720;-69
2022/03/13 08:21:49;;;;;;;8.57;6.47;;;;;;;2.91;32.96;98275.72;6155195;28;20237;-68
2022/03/13 08:24:51;;;;;;;12.03;6.83;;;;;;;3.23;31.77;98268.34;6154831;28;20297;-70
2022/03/13 08:27:53;;;;;;;9.50;6.73;;;;;;;3.52;31.64;98260.13;6185973;28;20233;-70
2022/03/13 08:30:55;;;;;;;12.90;6.77;;;;;;;3.69;30.79;98262.03;6153935;28;20239;-69
2022/03/13 08:33:57;;;;;;;9.67;6.10;;;;;;;3.94;30.12;98252.19;6153052;28;20244;-69
2022/03/13 08:36:59;;;;;;;9.90;5.97;;;;;;;4.25;30.01;98259.50;6153521;28;20245;-68
2022/03/13 08:40:04;;;;;;;14.87;6.40;;;;;;;4.65;29.77;98268.09;6154578;28;20238;-68
2022/03/13 08:43:06;;;;;;;10.00;6.40;;;;;;;5.04;29.22;98254.88;6154103;28;20238;-69
2022/03/13 08:46:10;;;;;;;10.47;6.47;;;;;;;5.33;29.31;98263.91;6163925;28;20624;-69
2022/03/13 08:49:12;;;;;;;8.50;6.10;;;;;;;5.64;27.18;98252.75;6167267;28;20741;-69
2022/03/13 08:52:14;;;;;;;9.47;6.33;;;;;;;6.03;26.69;98255.94;6153792;28;20235;-68
2022/03/13 08:55:18;;;;;;;9.00;5.70;;;;;;;6.30;27.26;98248.38;6154225;28;20272;-69
2022/03/13 08:58:20;;;;;;;10.90;6.33;;;;;;;6.54;28.06;98254.91;6154193;28;20244;-69
2022/03/13 09:01:25;;;;;;;11.70;6.03;;;;;;;6.77;26.82;98258.06;6153696;28;20234;-69
2022/03/13 09:04:27;;;;;;;11.90;6.97;;;;;;;6.67;25.06;98262.97;6154147;28;20336;-69
2022/03/13 09:07:29;;;;;;;9.33;6.47;;;;;;;6.89;25.86;98254.72;6153890;28;20236;-69
2022/03/13 09:10:32;;;;;;;11.17;6.73;;;;;;;7.18;25.38;98253.09;6154030;28;20237;-70
2022/03/13 09:13:35;;;;;;;8.97;6.63;;;;;;;7.47;25.30;98249.63;6154210;28;20234;-70
2022/03/13 09:16:41;;;;;;;9.03;6.40;;;;;;;7.84;24.41;98257.94;6159262;28;20226;-68
2022/03/13 09:19:44;;;;;;;8.97;6.07;;;;;;;8.09;24.83;98266.84;6158015;28;20249;-69
2022/03/13 09:22:46;;;;;;;9.33;6.50;;;;;;;8.22;23.73;98266.97;6156601;28;20220;-70
2022/03/13 09:25:50;;;;;;;7.87;6.13;;;;;;;8.52;24.90;98269.50;6158937;28;20713;-69
2022/03/13 09:28:52;;;;;;;11.37;6.70;;;;;;;8.06;23.60;98267.06;6172251;28;20243;-68
2022/03/13 09:31:54;;;;;;;10.27;7.10;;;;;;;8.32;24.50;98272.53;6158436;28;20242;-68
2022/03/13 09:34:56;;;;;;;8.40;6.20;;;;;;;7.99;23.58;98272.75;6158621;28;20756;-69
2022/03/13 09:37:58;;;;;;;9.23;6.80;;;;;;;8.44;23.82;98275.25;6172898;28;20238;-69
2022/03/13 09:41:00;;;;;;;8.50;6.57;;;;;;;8.28;23.41;98279.75;6188854;28;20234;-68
2022/03/13 09:44:03;;;;;;;8.03;6.57;;;;;;;8.83;24.34;98269.25;6157509;28;20237;-69
2022/03/13 09:47:06;;;;;;;10.37;6.87;;;;;;;9.35;24.13;98265.88;6171256;28;20237;-68
2022/03/13 09:50:12;;;;;;;10.20;7.17;;;;;;;8.64;23.12;98273.16;6159353;28;20227;-68
2022/03/13 09:53:15;;;;;;;8.13;6.50;;;;;;;8.45;22.86;98278.72;6158226;28;20243;-67
2022/03/13 09:56:17;;;;;;;10.03;6.77;;;;;;;8.35;23.29;98270.56;6158406;28;20249;-68
2022/03/13 09:59:19;;;;;;;9.60;6.40;;;;;;;8.45;23.40;98271.69;6156777;28;20246;-68
2022/03/13 10:02:33;;;;;;;9.77;7.10;;;;;;;8.54;23.39;98269.41;6158009;28;20237;-68
2022/03/13 10:05:44;;;;;;;9.17;6.50;;;;;;;8.94;23.46;98262.47;6171920;28;20237;-69
2022/03/13 10:08:46;;;;;;;8.80;6.57;;;;;;;9.48;23.13;98256.19;6187200;28;20587;-68
2022/03/13 10:12:01;;;;;;;11.10;7.33;;;;;;;9.48;22.02;98255.41;6157012;28;20238;-70
2022/03/13 10:15:06;;;;;;;10.50;6.60;;;;;;;9.52;23.43;98248.94;6198708;28;20578;-68
2022/03/13 10:18:23;;;;;;;8.27;5.90;;;;;;;9.87;23.44;98246.59;6199257;28;20565;-69
2022/03/13 10:21:26;;;;;;;8.43;6.40;;;;;;;10.27;22.13;98245.53;6180539;28;20234;-69
2022/03/13 10:24:28;;;;;;;12.27;6.57;;;;;;;10.30;22.47;98247.94;6181879;28;20231;-70
2022/03/13 10:27:32;;;;;;;10.30;7.23;;;;;;;10.37;22.20;98243.09;6157240;28;20538;-69
2022/03/13 10:30:34;;;;;;;9.33;6.43;;;;;;;10.08;22.06;98231.91;6177690;28;20633;-68
2022/03/13 10:33:52;;;;;;;7.63;6.23;;;;;;;9.51;22.65;98250.75;6180925;28;20795;-68
2022/03/13 10:36:54;;;;;;;9.13;6.53;;;;;;;9.72;22.88;98244.97;6178944;28;20288;-68
2022/03/13 10:40:31;;;;;;;7.60;6.17;;;;;;;10.02;21.86;98231.47;6180757;28;20240;-68
2022/03/13 10:43:35;;;;;;;9.57;6.17;;;;;;;9.81;20.97;98236.44;6200886;28;20481;-68
2022/03/13 10:46:39;;;;;;;9.43;6.57;;;;;;;10.35;21.89;98226.53;6172486;28;20507;-68
2022/03/13 10:49:46;;;;;;;10.10;6.87;;;;;;;10.72;19.94;98237.94;6173403;28;20682;-67
2022/03/13 10:52:48;;;;;;;8.90;5.80;;;;;;;10.38;21.02;98234.25;6202013;28;20755;-68
2022/03/13 10:55:59;;;;;;;8.73;6.60;;;;;;;10.38;20.36;98234.25;6200942;28;20224;-67
2022/03/13 10:59:19;;;;;;;7.37;5.63;;;;;;;10.57;19.95;98242.53;6201168;28;20305;-68
2022/03/13 11:02:29;;;;;;;11.17;6.20;;;;;;;10.79;19.82;98231.25;6200631;28;20359;-69
2022/03/13 11:05:31;;;;;;;8.07;5.87;;;;;;;10.86;19.48;98229.88;6205930;28;21002;-70
2022/03/13 11:08:33;;;;;;;8.40;5.90;;;;;;;11.23;20.89;98221.88;6201641;28;20259;-68
2022/03/13 11:11:35;;;;;;;7.10;5.73;;;;;;;11.36;19.94;98222.66;6200224;28;20235;-68
2022/03/13 11:14:38;;;;;;;8.97;5.80;;;;;;;10.76;19.89;98217.47;6206058;28;20236;-68
2022/03/13 11:17:43;;;;;;;7.07;5.70;;;;;;;11.29;20.51;98221.41;6200526;28;20235;-68
2022/03/13 11:20:47;;;;;;;6.90;6.00;;;;;;;11.07;19.46;98219.53;6193657;28;20229;-69
2022/03/13 11:23:49;;;;;;;7.97;5.47;;;;;;;11.09;20.13;98218.47;6203650;28;20217;-68
2022/03/13 11:26:52;;;;;;;8.67;6.10;;;;;;;11.69;20.17;98214.81;6178841;28;20883;-69
2022/03/13 11:29:55;;;;;;;8.67;6.03;;;;;;;11.53;19.61;98214.31;6179459;28;20258;-67
2022/03/13 11:32:57;;;;;;;8.33;5.87;;;;;;;11.70;19.08;98213.84;6179683;28;20221;-69
2022/03/13 11:36:31;;;;;;;7.00;5.73;;;;;;;12.19;18.91;98202.16;6193392;28;20236;-68
2022/03/13 11:39:34;;;;;;;7.87;6.20;;;;;;;12.31;18.63;98203.00;6178391;28;20228;-69
2022/03/13 11:42:54;;;;;;;7.83;5.47;;;;;;;12.34;18.03;98198.31;6178031;28;20710;-67
2022/03/13 11:46:00;;;;;;;7.67;5.73;;;;;;;12.33;18.38;98203.72;6191954;28;20226;-68
2022/03/13 11:49:33;;;;;;;8.33;5.93;;;;;;;11.74;19.00;98180.09;6186318;28;20240;-69
2022/03/13 11:52:37;;;;;;;8.43;6.60;;;;;;;11.75;18.47;98184.47;6178440;28;20257;-67
2022/03/13 11:55:58;;;;;;;8.47;6.23;;;;;;;11.52;19.37;98182.69;6177032;28;20608;-68
2022/03/13 11:59:19;;;;;;;7.37;5.50;;;;;;;12.10;19.32;98182.56;6178584;28;20719;-68
2022/03/13 12:02:39;;;;;;;6.77;6.10;;;;;;;11.75;18.81;98180.03;6178802;28;20236;-68
2022/03/13 12:05:50;;;;;;;7.53;5.80;;;;;;;11.73;18.10;98178.41;6178154;28;20625;-68
2022/03/13 12:09:14;;;;;;;6.30;5.13;;;;;;;12.04;18.58;98171.63;6192281;28;21168;-68
2022/03/13 12:12:17;;;;;;;6.13;5.30;;;;;;;12.82;18.36;98174.16;6177167;28;20294;-67
2022/03/13 12:15:21;;;;;;;6.97;5.87;;;;;;;13.06;18.09;98163.38;6183930;28;20237;-69
2022/03/13 12:18:27;;;;;;;9.93;5.60;;;;;;;13.40;17.78;98156.09;6198240;28;20701;-68
2022/03/13 12:21:32;;;;;;;7.47;5.30;;;;;;;12.68;17.19;98156.72;6178968;28;20236;-69
2022/03/13 12:24:35;;;;;;;6.77;5.23;;;;;;;12.48;17.58;98152.19;6198837;28;20694;-68
2022/03/13 12:27:45;;;;;;;9.27;5.97;;;;;;;12.48;17.61;98155.69;6178522;28;20233;-68
2022/03/13 12:30:47;;;;;;;7.37;5.97;;;;;;;12.54;18.03;98157.84;6192672;28;20254;-68
2022/03/13 12:33:51;;;;;;;7.97;5.83;;;;;;;13.17;18.45;98150.09;6192647;28;20236;-68
2022/03/13 12:36:53;;;;;;;8.83;6.50;;;;;;;13.52;18.09;98144.47;6178078;28;20243;-70
2022/03/13 12:39:58;;;;;;;8.30;6.13;;;;;;;13.73;17.81;98155.91;6192332;28;20235;-68
2022/03/13 12:43:01;;;;;;;7.20;6.13;;;;;;;13.84;17.41;98137.25;6176934;28;20267;-68
2022/03/13 12:46:04;;;;;;;6.93;5.87;;;;;;;14.11;17.81;98147.28;6183886;28;20274;-67
2022/03/13 12:49:11;;;;;;;7.83;5.50;;;;;;;13.61;16.66;98136.56;6178500;28;20248;-67
2022/03/13 12:52:13;;;;;;;9.73;6.30;;;;;;;13.61;17.37;98139.22;6177323;28;20327;-68
2022/03/13 12:55:17;;;;;;;8.17;6.20;;;;;;;14.53;17.50;98136.56;6177344;28;20697;-68
2022/03/13 12:58:22;;;;;;;8.83;5.90;;;;;;;14.11;16.31;98149.94;6192558;28;20731;-67
2022/03/13 13:01:23;;;;;;;8.73;6.30;;;;;;;13.99;16.54;98138.56;6177137;28;20232;-68
2022/03/13 13:04:26;;;;;;;8.97;6.00;;;;;;;13.91;16.68;98145.53;6177069;28;20240;-67
2022/03/13 13:07:31;;;;;;;6.97;5.77;;;;;;;13.56;17.55;98154.69;6192157;28;20692;-68
2022/03/13 13:10:33;;;;;;;8.70;6.20;;;;;;;13.68;17.21;98148.31;6191780;28;20755;-68
2022/03/13 13:13:35;;;;;;;8.63;5.70;;;;;;;14.33;16.11;98154.22;6192534;28;20664;-68
2022/03/13 13:16:37;;;;;;;6.90;5.73;;;;;;;14.52;16.84;98146.34;6191511;28;20735;-68
2022/03/13 13:19:45;;;;;;;6.37;5.53;;;;;;;14.52;16.53;98146.34;6178349;28;20276;-67
2022/03/13 13:22:48;;;;;;;7.33;6.07;;;;;;;14.67;16.60;98154.78;6182982;28;20263;-69
2022/03/13 13:25:50;;;;;;;7.00;5.63;;;;;;;14.99;15.82;98144.72;6181542;28;20713;-67
2022/03/13 13:28:59;;;;;;;7.30;5.57;;;;;;;15.72;15.85;98145.09;6177651;28;20241;-70
2022/03/13 13:32:24;;;;;;;6.67;5.50;;;;;;;17.98;14.07;98137.81;6177002;28;20609;-67
2022/03/13 13:35:44;;;;;;;8.03;5.63;;;;;;;19.21;13.00;98132.72;6177612;28;20698;-69
2022/03/13 13:38:47;;;;;;;7.97;5.80;;;;;;;20.40;12.33;98135.59;6177381;28;20641;-67
2022/03/13 13:41:56;;;;;;;7.03;5.50;;;;;;;22.05;11.33;98129.56;6176670;28;20229;-68
2022/03/13 13:45:03;;;;;;;7.90;5.33;;;;;;;22.65;10.91;98135.75;6177764;28;20222;-68
2022/03/13 13:48:24;;;;;;;7.07;5.57;;;;;;;23.81;10.10;98135.50;6196108;28;20758;-67
2022/03/13 13:51:29;;;;;;;7.37;5.67;;;;;;;24.46;9.90;98132.41;6191700;28;20255;-68
2022/03/13 13:54:35;;;;;;;6.43;5.63;;;;;;;24.04;10.21;98141.50;6176265;28;20248;-68
2022/03/13 13:57:37;;;;;;;7.27;5.87;;;;;;;24.48;9.53;98135.75;6177284;28;20857;-67
2022/03/13 14:00:39;;;;;;;6.60;5.83;;;;;;;24.37;9.79;98132.78;6192069;28;20248;-69
2022/03/13 14:03:41;;;;;;;7.77;6.30;;;;;;;24.94;9.78;98125.19;6176981;28;20323;-68
2022/03/13 14:06:45;;;;;;;7.53;5.93;;;;;;;24.09;10.15;98127.41;6196169;28;20240;-67
2022/03/13 14:09:47;;;;;;;9.87;6.80;;;;;;;22.49;10.49;98125.19;6181241;28;20233;-67
2022/03/13 14:12:49;;;;;;;7.93;6.53;;;;;;;19.13;12.54;98125.53;6181982;28;20233;-69
2022/03/13 14:15:51;;;;;;;7.47;5.57;;;;;;;18.33;13.53;98126.97;6198462;28;20236;-69
2022/03/13 14:18:53;;;;;;;8.27;5.87;;;;;;;16.44;14.76;98137.25;6180908;28;20225;-70
2022/03/13 14:21:56;;;;;;;8.20;6.13;;;;;;;14.47;16.50;98137.94;6180978;28;20609;-69
2022/03/13 14:24:57;;;;;;;8.03;6.30;;;;;;;14.75;16.20;98136.31;6219003;28;20693;-69